In Rescue
 
Open Full Screen Window  High Contrast Mode
Wind Gusting 00 knots
09
October 25, 2021 4:45 PM EDT
Weather Information
Wind Direction
  300 °
Wind Speed
  09 kt (10 mph)
Wind Gust
  00 kt (0 mph)
Altimeter
29.68 in
Visibility
4 SM
Temperature
13° C
55° F
Dewpoint
12° C
54° F
Humidity
94%
1hr Rain Fall
00.06 in.
24hr Rain Fall
01.99 in.
Sky Condition
Overcast @ 1,000 ft
MVFR

METAR KMRT 252045Z AUTO 30009KT 4SM OVC010 13/12 A2968 RMK AO2 60006 T01300115 P0006

FAA Disclaimer: The data displayed is for advisory purposes only and is not to be used for flight planning or operations.